Time;durP1;ratioP1;P1;durP2;ratioP2;P2;SDS_P1;SDS_P2;PMS_P1;PMS_P2;Temp;Humidity;BMP_temperature;BMP_pressure;BME280_temperature;BME280_humidity;BME280_pressure;Samples;Min_cycle;Max_cycle;Signal;HPM_P1;HPM_P2
2023/05/22 00:01:44;;;;;;;4.40;1.30;;;18.20;99.90;;;;;;5072270;28;20674;-73
2023/05/22 00:04:12;;;;;;;13.47;1.40;;;18.30;99.90;;;;;;5074387;28;20532;-68
2023/05/22 00:06:45;;;;;;;5.43;1.60;;;18.40;99.90;;;;;;5077782;28;20176;-73
2023/05/22 00:09:14;;;;;;;5.43;2.40;;;18.40;99.90;;;;;;5079364;28;20211;-70
2023/05/22 00:11:41;;;;;;;2.73;1.10;;;18.60;99.90;;;;;;5073702;28;20190;-73
2023/05/22 00:14:12;;;;;;;2.70;1.27;;;18.50;99.90;;;;;;5073702;28;20176;-75
2023/05/22 00:16:40;;;;;;;4.83;1.73;;;18.90;99.90;;;;;;5072070;28;20168;-72
2023/05/22 00:19:12;;;;;;;3.47;1.90;;;19.10;99.90;;;;;;5071730;28;20545;-73
2023/05/22 00:21:39;;;;;;;5.13;1.83;;;19.90;99.90;;;;;;5071392;28;20242;-74
2023/05/22 00:24:08;;;;;;;3.03;1.70;;;20.20;99.90;;;;;;5070597;28;20183;-74
2023/05/22 00:26:36;;;;;;;9.37;2.20;;;20.00;99.90;;;;;;5071958;28;20224;-71
2023/05/22 00:29:04;;;;;;;5.50;2.10;;;19.50;99.90;;;;;;5070821;28;20212;-72
2023/05/22 00:31:32;;;;;;;3.67;2.10;;;19.40;99.90;;;;;;5071571;28;20641;-72
2023/05/22 00:34:00;;;;;;;3.23;1.97;;;20.00;99.90;;;;;;5071572;28;20236;-73
2023/05/22 00:36:28;;;;;;;4.53;1.77;;;20.20;99.90;;;;;;5071134;28;20184;-74
2023/05/22 00:38:56;;;;;;;6.07;1.60;;;20.10;99.90;;;;;;5071593;28;20262;-72
2023/05/22 00:41:24;;;;;;;2.93;1.70;;;20.30;98.60;;;;;;5070938;28;20188;-72
2023/05/22 00:43:52;;;;;;;9.10;1.73;;;20.50;99.10;;;;;;5070893;28;20191;-73
2023/05/22 00:46:21;;;;;;;8.03;1.77;;;20.70;97.50;;;;;;5071623;28;20247;-72
2023/05/22 00:48:51;;;;;;;8.07;2.10;;;21.30;98.50;;;;;;5071080;28;20246;-75
2023/05/22 00:51:21;;;;;;;8.73;2.20;;;21.30;96.60;;;;;;5070702;28;20172;-72
2023/05/22 00:53:50;;;;;;;8.73;2.20;;;22.10;93.80;;;;;;5071841;28;20172;-71
2023/05/22 00:56:20;;;;;;;16.03;2.17;;;22.10;90.00;;;;;;5071776;28;20651;-71
2023/05/22 00:58:48;;;;;;;5.47;1.63;;;21.90;88.10;;;;;;5070556;28;20222;-73
2023/05/22 01:01:16;;;;;;;11.33;2.00;;;21.90;81.90;;;;;;5070791;28;20187;-74
2023/05/22 01:03:45;;;;;;;8.93;2.20;;;22.20;73.50;;;;;;5070857;28;20183;-75
2023/05/22 01:06:14;;;;;;;7.93;1.80;;;21.80;73.50;;;;;;5070673;28;20168;-73
2023/05/22 01:08:43;;;;;;;9.53;2.30;;;21.30;75.10;;;;;;5070381;28;20225;-74
2023/05/22 01:11:31;;;;;;;7.03;1.67;;;20.90;77.80;;;;;;5068240;28;20250;-72
2023/05/22 01:14:17;;;;;;;6.60;1.90;;;21.10;75.80;;;;;;5068851;28;20910;-73
2023/05/22 01:17:22;;;;;;;10.30;2.03;;;20.90;73.60;;;;;;5070425;28;20175;-74
2023/05/22 01:20:13;;;;;;;5.83;2.23;;;21.50;75.30;;;;;;5067793;28;20182;-75
2023/05/22 01:22:50;;;;;;;6.70;1.87;;;21.80;80.00;;;;;;5068114;28;20194;-72
2023/05/22 01:25:41;;;;;;;9.07;1.90;;;21.80;74.00;;;;;;5069964;28;20189;-71
2023/05/22 01:28:36;;;;;;;8.00;1.67;;;22.30;72.00;;;;;;5068742;28;20203;-72
2023/05/22 01:31:11;;;;;;;4.83;1.73;;;22.20;68.20;;;;;;5072517;28;20175;-70
2023/05/22 01:33:55;;;;;;;10.07;2.47;;;22.40;68.30;;;;;;5074671;28;20212;-71
2023/05/22 01:36:28;;;;;;;10.03;2.73;;;22.60;65.40;;;;;;5071506;28;20175;-71
2023/05/22 01:38:59;;;;;;;4.60;2.03;;;22.20;68.40;;;;;;5074660;28;20192;-69
2023/05/22 01:41:30;;;;;;;5.70;2.30;;;22.70;65.80;;;;;;5074479;28;20637;-69
2023/05/22 01:43:58;;;;;;;5.47;2.13;;;22.90;63.90;;;;;;5073978;28;20178;-70
2023/05/22 01:46:30;;;;;;;8.10;2.07;;;22.80;63.00;;;;;;5074213;28;20180;-73
2023/05/22 01:48:58;;;;;;;6.67;2.30;;;23.20;60.90;;;;;;5071750;28;20236;-69
2023/05/22 01:51:38;;;;;;;4.97;2.20;;;22.90;56.90;;;;;;5074214;28;20645;-69
2023/05/22 01:54:42;;;;;;;10.53;2.43;;;22.90;56.50;;;;;;5074213;28;20237;-69
2023/05/22 01:57:28;;;;;;;4.57;1.97;;;22.10;56.90;;;;;;5066698;28;20201;-69
2023/05/22 02:00:10;;;;;;;7.20;1.77;;;22.20;57.60;;;;;;5073911;28;20190;-70
2023/05/22 02:02:56;;;;;;;6.57;1.70;;;22.40;55.70;;;;;;5074151;28;20187;-71
2023/05/22 02:05:26;;;;;;;7.37;1.93;;;23.10;49.60;;;;;;5074048;28;20236;-69
2023/05/22 02:07:57;;;;;;;4.43;1.63;;;23.20;45.70;;;;;;5074600;28;20218;-69
2023/05/22 02:10:27;;;;;;;5.67;2.07;;;23.00;46.40;;;;;;5074377;28;20259;-69
2023/05/22 02:12:55;;;;;;;5.60;2.07;;;22.80;48.60;;;;;;5074112;28;20180;-70
2023/05/22 02:15:23;;;;;;;3.83;1.40;;;22.70;49.50;;;;;;5074249;28;20180;-69
2023/05/22 02:17:51;;;;;;;7.53;1.93;;;23.40;42.20;;;;;;5074366;28;20176;-69
2023/05/22 02:20:19;;;;;;;4.97;1.40;;;23.20;43.10;;;;;;5072411;28;20192;-69
2023/05/22 02:22:48;;;;;;;3.27;0.90;;;23.50;39.70;;;;;;5074092;28;20575;-69
2023/05/22 02:25:16;;;;;;;4.03;1.40;;;22.90;30.90;;;;;;5074200;28;20229;-71
2023/05/22 02:27:46;;;;;;;6.93;1.57;;;22.50;32.30;;;;;;5073600;28;20602;-70
2023/05/22 02:30:15;;;;;;;5.67;1.40;;;22.60;34.90;;;;;;5074092;28;20180;-69
2023/05/22 02:32:43;;;;;;;2.73;1.53;;;22.80;36.00;;;;;;5074080;28;20544;-70
2023/05/22 02:35:10;;;;;;;3.50;1.30;;;23.80;30.00;;;;;;5073398;28;20266;-70
2023/05/22 02:37:38;;;;;;;7.97;1.70;;;23.70;30.50;;;;;;5073702;28;20266;-69
2023/05/22 02:40:07;;;;;;;5.33;1.37;;;23.60;31.30;;;;;;5073857;28;20172;-69
2023/05/22 02:42:35;;;;;;;4.50;1.47;;;23.20;31.30;;;;;;5072519;28;20259;-67
2023/05/22 02:45:03;;;;;;;6.53;1.50;;;23.50;30.70;;;;;;5073969;28;20221;-72
2023/05/22 02:47:30;;;;;;;6.50;1.77;;;23.30;31.10;;;;;;5073654;28;20184;-72
2023/05/22 02:49:58;;;;;;;9.23;1.77;;;23.30;30.20;;;;;;5073174;28;20193;-73
2023/05/22 02:52:27;;;;;;;8.53;1.70;;;22.80;29.40;;;;;;5073556;28;20172;-68
2023/05/22 02:54:54;;;;;;;7.60;1.50;;;22.50;28.40;;;;;;5073629;28;20176;-70
2023/05/22 02:57:22;;;;;;;5.33;1.30;;;22.80;28.90;;;;;;5073153;28;20262;-69
2023/05/22 02:59:51;;;;;;;3.03;1.20;;;23.00;27.00;;;;;;5073685;28;20266;-70
2023/05/22 03:02:19;;;;;;;6.00;1.60;;;23.20;24.90;;;;;;5073416;28;20230;-69
2023/05/22 03:04:46;;;;;;;7.53;2.47;;;23.50;26.90;;;;;;5073466;28;20249;-67
2023/05/22 03:07:14;;;;;;;4.20;1.33;;;24.10;26.90;;;;;;5073280;28;20637;-68
2023/05/22 03:09:42;;;;;;;4.80;1.00;;;24.10;28.20;;;;;;5075178;28;20238;-67
2023/05/22 03:12:10;;;;;;;5.20;1.10;;;24.40;25.20;;;;;;5074731;28;20176;-71
2023/05/22 03:14:38;;;;;;;3.00;0.70;;;24.30;23.30;;;;;;5074440;28;20183;-72
2023/05/22 03:17:06;;;;;;;2.77;1.10;;;23.50;19.60;;;;;;5072856;28;20176;-71
2023/05/22 03:19:33;;;;;;;6.30;1.03;;;23.20;18.90;;;;;;5072859;28;20290;-69
2023/05/22 03:22:01;;;;;;;2.63;1.30;;;22.70;18.40;;;;;;5072860;28;20183;-68
2023/05/22 03:24:30;;;;;;;4.90;1.30;;;23.50;20.70;;;;;;5073408;28;20274;-72
2023/05/22 03:26:59;;;;;;;3.30;1.40;;;23.50;21.90;;;;;;5073933;28;20195;-69
2023/05/22 03:29:26;;;;;;;2.37;1.20;;;23.70;21.80;;;;;;5073096;28;20225;-69
2023/05/22 03:31:56;;;;;;;3.03;0.90;;;23.70;19.30;;;;;;5073040;28;20206;-69
2023/05/22 03:34:25;;;;;;;2.43;1.07;;;23.40;19.80;;;;;;5072331;28;20186;-72
2023/05/22 03:36:53;;;;;;;5.77;1.70;;;23.80;20.70;;;;;;5070420;28;20318;-71
2023/05/22 03:39:21;;;;;;;5.60;1.40;;;23.70;20.40;;;;;;5072718;28;20274;-71
2023/05/22 03:41:49;;;;;;;10.20;1.33;;;22.80;19.10;;;;;;5072303;28;20590;-71
2023/05/22 03:44:16;;;;;;;2.43;1.07;;;22.90;19.90;;;;;;5072015;28;20672;-74
2023/05/22 03:46:45;;;;;;;7.63;1.43;;;23.50;19.20;;;;;;5073012;28;20180;-70
2023/05/22 03:49:13;;;;;;;11.47;1.60;;;23.60;19.10;;;;;;5072179;28;20227;-69
2023/05/22 03:51:40;;;;;;;7.63;1.50;;;23.30;20.60;;;;;;5072706;28;20179;-73
2023/05/22 03:54:08;;;;;;;3.87;1.50;;;23.50;19.00;;;;;;5071510;28;20532;-71
2023/05/22 03:56:36;;;;;;;3.53;1.40;;;23.60;18.90;;;;;;5071717;28;20233;-72
2023/05/22 03:59:04;;;;;;;4.30;1.40;;;23.60;18.80;;;;;;5072283;28;20183;-72
2023/05/22 04:01:32;;;;;;;2.73;1.17;;;23.40;18.70;;;;;;5072283;28;20207;-75
2023/05/22 04:04:00;;;;;;;6.60;1.17;;;23.30;19.40;;;;;;5071866;28;20668;-72
2023/05/22 04:06:31;;;;;;;3.63;1.23;;;23.60;17.20;;;;;;5071795;28;20291;-73
2023/05/22 04:09:00;;;;;;;6.00;1.13;;;23.60;18.40;;;;;;5072298;28;20241;-76
2023/05/22 04:11:29;;;;;;;3.47;1.10;;;23.70;17.00;;;;;;5071818;28;20211;-72
2023/05/22 04:14:24;;;;;;;4.63;1.40;;;23.80;17.50;;;;;;5192444;27;20505;-69
2023/05/22 04:16:52;;;;;;;4.47;1.23;;;23.60;16.80;;;;;;5170866;27;20180;-71
2023/05/22 04:19:21;;;;;;;2.67;1.03;;;23.50;17.40;;;;;;5170948;27;20259;-68
2023/05/22 04:21:49;;;;;;;2.83;1.17;;;23.60;17.10;;;;;;5171356;27;20177;-73
2023/05/22 04:24:17;;;;;;;5.17;1.37;;;23.30;17.00;;;;;;5152502;27;20325;-69
2023/05/22 04:26:45;;;;;;;22.73;13.93;;;23.30;18.10;;;;;;5135392;27;20191;-72
2023/05/22 04:29:13;;;;;;;9.57;5.37;;;23.30;17.60;;;;;;5131656;27;20188;-70
2023/05/22 04:31:40;;;;;;;6.27;2.60;;;23.20;17.60;;;;;;5150401;27;20638;-74
2023/05/22 04:34:11;;;;;;;5.00;1.87;;;23.10;18.40;;;;;;5151476;27;20192;-72
2023/05/22 04:36:39;;;;;;;6.07;1.43;;;23.00;18.50;;;;;;5165328;27;20184;-74
2023/05/22 04:39:07;;;;;;;7.63;1.00;;;23.00;18.20;;;;;;5161326;27;20646;-73
2023/05/22 04:41:35;;;;;;;4.23;1.20;;;22.80;17.10;;;;;;5131172;27;20295;-76
2023/05/22 04:44:02;;;;;;;6.00;1.33;;;22.40;16.20;;;;;;5150071;27;20188;-73
2023/05/22 04:46:30;;;;;;;4.33;0.90;;;22.70;17.60;;;;;;5163513;27;20180;-74
2023/05/22 04:49:00;;;;;;;3.13;1.20;;;22.60;17.50;;;;;;5170238;27;20255;-74
2023/05/22 04:51:30;;;;;;;2.97;0.87;;;22.80;17.50;;;;;;5157600;27;20213;-73
2023/05/22 04:53:57;;;;;;;3.77;1.27;;;23.00;17.90;;;;;;5149831;27;20570;-72
2023/05/22 04:56:26;;;;;;;4.23;1.17;;;23.20;17.00;;;;;;5149656;27;20696;-75
2023/05/22 04:58:54;;;;;;;6.20;1.30;;;23.40;16.80;;;;;;5149941;27;20655;-75
2023/05/22 05:01:23;;;;;;;3.40;1.00;;;23.10;16.90;;;;;;5149781;27;20242;-74
2023/05/22 05:03:51;;;;;;;10.77;1.50;;;23.00;16.80;;;;;;5149429;27;20712;-75
2023/05/22 05:06:20;;;;;;;5.83;1.57;;;22.80;18.30;;;;;;5142730;27;20177;-70
2023/05/22 05:08:48;;;;;;;4.67;1.53;;;22.70;17.90;;;;;;5170271;27;20180;-69
2023/05/22 05:11:16;;;;;;;4.37;1.33;;;22.20;16.50;;;;;;5163926;27;20271;-71
2023/05/22 05:13:44;;;;;;;4.63;1.30;;;22.30;18.00;;;;;;5158028;27;20224;-75
2023/05/22 05:16:12;;;;;;;5.40;1.30;;;22.50;18.20;;;;;;5159250;27;20532;-73
2023/05/22 05:18:40;;;;;;;5.23;1.30;;;22.20;17.40;;;;;;5159678;27;20248;-69
2023/05/22 05:21:07;;;;;;;2.07;1.03;;;22.00;18.70;;;;;;5158743;27;20178;-72
2023/05/22 05:23:35;;;;;;;5.90;1.00;;;21.70;18.60;;;;;;5153499;27;20176;-74
2023/05/22 05:26:03;;;;;;;7.07;2.53;;;21.60;19.30;;;;;;5145695;27;20178;-74
2023/05/22 05:28:31;;;;;;;7.43;1.60;;;21.40;18.50;;;;;;5144496;27;20170;-72
2023/05/22 05:30:58;;;;;;;9.23;1.70;;;21.20;18.40;;;;;;5145647;27;20190;-68
2023/05/22 05:33:26;;;;;;;8.60;2.10;;;21.20;20.30;;;;;;5143625;27;20222;-73
2023/05/22 05:35:54;;;;;;;6.83;1.73;;;20.90;19.30;;;;;;5147932;27;20544;-68
2023/05/22 05:38:22;;;;;;;7.17;1.33;;;20.50;20.20;;;;;;5147175;27;20184;-69
2023/05/22 05:40:51;;;;;;;6.63;1.83;;;20.20;19.90;;;;;;5144192;27;20639;-70
2023/05/22 05:43:19;;;;;;;4.90;1.30;;;19.90;20.90;;;;;;5144179;27;20544;-68
2023/05/22 05:45:49;;;;;;;4.37;1.43;;;19.70;20.00;;;;;;5125187;27;20182;-68
2023/05/22 05:48:17;;;;;;;4.97;1.30;;;19.40;20.60;;;;;;5145077;27;20180;-73
2023/05/22 05:50:45;;;;;;;5.30;1.20;;;19.10;21.70;;;;;;5143030;27;20170;-73
2023/05/22 05:53:13;;;;;;;6.30;1.50;;;18.90;22.00;;;;;;5134629;27;20213;-70
2023/05/22 05:55:40;;;;;;;5.07;1.40;;;18.80;21.80;;;;;;5134708;27;20658;-71
2023/05/22 05:58:08;;;;;;;9.23;1.67;;;18.90;21.70;;;;;;5147915;27;20199;-72
2023/05/22 06:00:37;;;;;;;7.43;1.37;;;18.70;23.30;;;;;;5152880;27;20180;-68
2023/05/22 06:03:05;;;;;;;6.83;1.33;;;18.70;23.60;;;;;;5155484;27;20177;-75
2023/05/22 06:05:33;;;;;;;6.27;1.60;;;18.60;25.60;;;;;;5152948;27;20188;-72
2023/05/22 06:08:01;;;;;;;5.90;1.60;;;18.60;25.20;;;;;;5134529;27;20170;-72
2023/05/22 06:10:28;;;;;;;4.77;1.60;;;18.50;25.20;;;;;;5152343;27;20177;-72
2023/05/22 06:12:56;;;;;;;4.07;1.17;;;18.40;27.50;;;;;;5155176;27;20258;-71
2023/05/22 06:15:24;;;;;;;4.87;1.67;;;18.30;26.40;;;;;;5140134;27;20178;-73
2023/05/22 06:17:52;;;;;;;4.17;1.30;;;18.20;26.90;;;;;;5134342;27;20176;-73
2023/05/22 06:20:20;;;;;;;4.27;1.33;;;18.10;28.50;;;;;;5134696;27;20226;-73
2023/05/22 06:22:47;;;;;;;5.83;1.60;;;18.00;28.40;;;;;;5134194;27;20174;-74
2023/05/22 06:25:15;;;;;;;5.90;1.47;;;18.00;29.60;;;;;;5134014;27;20170;-73
2023/05/22 06:27:44;;;;;;;3.07;1.37;;;17.90;30.80;;;;;;5134317;27;20541;-73
2023/05/22 06:30:12;;;;;;;6.27;2.10;;;17.80;30.60;;;;;;5151250;27;20192;-75
2023/05/22 06:32:40;;;;;;;5.67;1.97;;;17.90;29.80;;;;;;5154438;27;20249;-73
2023/05/22 06:35:09;;;;;;;5.70;1.80;;;17.70;30.50;;;;;;5143982;27;20582;-68
2023/05/22 06:37:37;;;;;;;3.37;1.50;;;17.50;33.70;;;;;;5133505;27;20174;-72
2023/05/22 06:40:06;;;;;;;2.63;1.13;;;17.20;37.70;;;;;;5147898;27;20248;-74
2023/05/22 06:42:34;;;;;;;3.30;1.00;;;17.00;41.50;;;;;;5154160;27;20176;-71
2023/05/22 06:45:02;;;;;;;5.10;1.27;;;16.80;45.90;;;;;;5131475;27;20193;-74
2023/05/22 06:47:30;;;;;;;3.80;1.80;;;16.60;50.20;;;;;;5153697;27;20176;-74
2023/05/22 06:49:57;;;;;;;6.13;1.43;;;16.40;55.40;;;;;;5155026;27;20179;-76
2023/05/22 06:52:25;;;;;;;6.40;1.33;;;16.20;63.60;;;;;;5155399;27;20551;-74
2023/05/22 06:54:53;;;;;;;3.00;1.10;;;16.00;72.70;;;;;;5154521;27;20256;-68
2023/05/22 06:57:22;;;;;;;4.03;1.20;;;15.90;80.40;;;;;;5154266;27;20198;-74
2023/05/22 06:59:50;;;;;;;5.90;1.73;;;15.70;90.50;;;;;;5154190;27;20180;-74
2023/05/22 07:02:18;;;;;;;3.43;1.33;;;15.60;95.70;;;;;;5154699;27;20184;-72
2023/05/22 07:04:46;;;;;;;2.70;1.53;;;15.40;99.90;;;;;;5154303;27;20184;-74
2023/05/22 07:07:13;;;;;;;4.27;1.43;;;15.30;99.90;;;;;;5153879;27;20173;-69
2023/05/22 07:09:41;;;;;;;3.17;1.10;;;15.20;99.90;;;;;;5135385;27;20260;-74
2023/05/22 07:12:09;;;;;;;5.50;1.30;;;15.10;99.90;;;;;;5153764;27;20228;-71
2023/05/22 07:14:37;;;;;;;5.93;1.20;;;14.90;99.90;;;;;;5153760;27;20173;-70
2023/05/22 07:17:05;;;;;;;7.87;1.90;;;14.80;99.90;;;;;;5153732;27;20181;-71
2023/05/22 07:19:34;;;;;;;5.60;1.50;;;14.60;99.90;;;;;;5153761;27;20185;-74
2023/05/22 07:22:02;;;;;;;4.47;1.90;;;14.50;99.90;;;;;;5153569;27;20169;-70
2023/05/22 07:24:30;;;;;;;7.90;2.17;;;14.40;99.90;;;;;;5153605;27;20633;-73
2023/05/22 07:26:57;;;;;;;5.10;1.80;;;14.30;99.90;;;;;;5153720;27;20264;-72
2023/05/22 07:29:25;;;;;;;10.50;2.23;;;14.20;99.90;;;;;;5153320;27;20174;-69
2023/05/22 07:31:53;;;;;;;6.67;1.93;;;14.10;99.90;;;;;;5153189;27;20184;-72
2023/05/22 07:34:21;;;;;;;7.27;1.67;;;14.00;99.90;;;;;;5154111;27;20179;-69
2023/05/22 07:36:49;;;;;;;5.97;1.70;;;13.90;99.90;;;;;;5153310;27;20814;-69
2023/05/22 07:39:17;;;;;;;8.73;2.00;;;13.80;99.90;;;;;;5153705;27;20171;-70
2023/05/22 07:41:51;;;;;;;3.20;1.53;;;13.70;99.90;;;;;;5135174;27;20540;-69
2023/05/22 07:44:19;;;;;;;5.60;2.03;;;13.60;99.90;;;;;;5134597;27;20664;-69
2023/05/22 07:46:47;;;;;;;7.63;1.80;;;13.50;99.90;;;;;;5153534;27;20192;-69
2023/05/22 07:49:18;;;;;;;3.83;1.77;;;13.40;99.90;;;;;;5159002;27;20191;-71
2023/05/22 07:51:46;;;;;;;6.40;2.10;;;13.30;99.90;;;;;;5164430;27;20169;-68
2023/05/22 07:54:14;;;;;;;7.23;2.93;;;13.20;99.90;;;;;;5156600;27;20697;-74
2023/05/22 07:56:42;;;;;;;7.60;3.97;;;13.20;99.90;;;;;;5167838;27;20180;-73
2023/05/22 07:59:11;;;;;;;11.93;5.40;;;13.10;99.90;;;;;;5162473;27;20172;-68
2023/05/22 08:01:40;;;;;;;16.03;6.03;;;13.00;99.90;;;;;;5158231;27;20179;-72
2023/05/22 08:04:08;;;;;;;13.97;5.90;;;12.90;99.90;;;;;;5158519;27;20211;-73
2023/05/22 08:09:58;;;;;;;8.97;4.07;;;12.80;99.90;;;;;;5154504;27;20178;-70
2023/05/22 08:12:26;;;;;;;7.70;3.67;;;12.80;99.90;;;;;;5155938;27;20235;-74
2023/05/22 08:14:54;;;;;;;10.83;3.73;;;12.60;99.90;;;;;;5155006;27;20199;-71
2023/05/22 08:17:21;;;;;;;11.47;3.77;;;12.50;99.90;;;;;;5136771;27;20585;-72
2023/05/22 08:19:49;;;;;;;13.00;3.70;;;12.40;99.90;;;;;;5155088;27;20221;-72
2023/05/22 08:22:17;;;;;;;9.80;5.17;;;12.40;99.90;;;;;;5154453;27;20172;-71
2023/05/22 08:24:45;;;;;;;12.63;5.70;;;12.40;99.90;;;;;;5154779;27;20183;-71
2023/05/22 08:27:13;;;;;;;15.77;4.90;;;12.50;99.90;;;;;;5154320;27;20174;-71
2023/05/22 08:29:40;;;;;;;14.67;5.67;;;12.50;99.90;;;;;;5154516;27;20180;-72
2023/05/22 08:32:08;;;;;;;9.17;4.67;;;12.50;99.90;;;;;;5135775;27;20206;-72
2023/05/22 08:34:36;;;;;;;16.27;5.57;;;12.40;99.90;;;;;;5154559;27;20177;-72
2023/05/22 08:37:04;;;;;;;10.70;5.00;;;12.30;99.90;;;;;;5135544;27;20228;-72
2023/05/22 08:39:32;;;;;;;13.97;5.73;;;12.30;99.90;;;;;;5154291;27;20257;-70
2023/05/22 08:42:02;;;;;;;11.70;4.63;;;12.20;99.90;;;;;;5154184;27;20172;-70
2023/05/22 08:44:30;;;;;;;15.30;5.90;;;12.10;99.90;;;;;;5154078;27;20184;-68
2023/05/22 08:47:00;;;;;;;10.93;4.60;;;12.00;99.90;;;;;;5154037;27;20175;-69
2023/05/22 08:49:28;;;;;;;12.30;5.43;;;12.00;99.90;;;;;;5148150;27;20200;-68
2023/05/22 08:52:07;;;;;;;8.93;5.03;;;11.90;99.90;;;;;;5152362;27;20177;-69
2023/05/22 08:54:40;;;;;;;10.33;4.47;;;11.80;99.90;;;;;;5152747;27;20191;-69
2023/05/22 08:57:07;;;;;;;10.53;4.37;;;11.70;99.90;;;;;;5152474;27;20239;-68
2023/05/22 08:59:38;;;;;;;12.87;5.23;;;11.60;99.90;;;;;;5154424;27;20176;-69
2023/05/22 09:02:07;;;;;;;14.43;5.07;;;11.60;99.90;;;;;;5151436;27;20191;-69
2023/05/22 09:04:35;;;;;;;16.90;5.40;;;11.50;99.90;;;;;;5147978;27;20187;-71
2023/05/22 09:07:04;;;;;;;19.73;6.07;;;11.50;99.90;;;;;;5156267;27;20184;-69
2023/05/22 09:09:38;;;;;;;15.67;5.80;;;11.50;99.90;;;;;;5156996;27;20180;-70
2023/05/22 09:12:08;;;;;;;12.60;5.73;;;11.50;99.90;;;;;;5137769;27;20238;-73
2023/05/22 09:14:43;;;;;;;13.47;6.53;;;11.50;99.90;;;;;;5157400;27;20172;-69
2023/05/22 09:17:14;;;;;;;13.57;6.60;;;11.40;99.90;;;;;;5138049;27;20187;-70
2023/05/22 09:19:45;;;;;;;17.20;5.93;;;11.30;99.90;;;;;;5157174;27;20178;-66
2023/05/22 09:22:15;;;;;;;17.30;7.43;;;11.30;99.90;;;;;;5156669;27;20285;-67
2023/05/22 09:24:45;;;;;;;17.30;7.37;;;11.20;99.90;;;;;;5156975;27;20550;-68
2023/05/22 09:27:13;;;;;;;21.27;7.30;;;11.10;99.90;;;;;;5151030;27;20217;-73
2023/05/22 09:29:51;;;;;;;14.23;7.10;;;11.00;99.90;;;;;;5155083;27;20189;-70
2023/05/22 09:32:20;;;;;;;15.27;6.90;;;11.00;99.90;;;;;;5155794;27;20209;-76
2023/05/22 09:34:49;;;;;;;17.70;7.33;;;10.90;99.90;;;;;;5154836;27;20266;-75
2023/05/22 09:37:17;;;;;;;15.87;6.97;;;10.80;99.90;;;;;;5156595;27;20204;-73
2023/05/22 09:39:47;;;;;;;16.13;6.60;;;10.80;99.90;;;;;;5156733;27;20180;-74
2023/05/22 09:42:21;;;;;;;11.80;7.70;;;10.70;99.90;;;;;;5156840;27;20184;-71
2023/05/22 09:44:50;;;;;;;15.40;7.77;;;10.70;99.90;;;;;;5156792;27;20182;-72
2023/05/22 09:47:18;;;;;;;21.30;8.87;;;10.70;99.90;;;;;;5137548;27;20188;-72
2023/05/22 09:49:46;;;;;;;14.37;7.83;;;10.70;99.90;;;;;;5156760;27;20542;-75
2023/05/22 09:52:16;;;;;;;16.70;7.40;;;10.60;99.90;;;;;;5156607;27;20204;-74
2023/05/22 09:54:54;;;;;;;18.80;7.73;;;10.50;99.90;;;;;;5156741;27;20175;-73
2023/05/22 09:57:27;;;;;;;17.37;7.90;;;10.50;99.90;;;;;;5156347;27;20209;-73
2023/05/22 09:59:59;;;;;;;12.53;7.40;;;10.40;99.90;;;;;;5156593;27;20224;-75
2023/05/22 10:02:27;;;;;;;16.83;8.77;;;10.40;99.90;;;;;;5156503;27;20261;-70
2023/05/22 10:04:56;;;;;;;20.13;9.67;;;10.40;99.90;;;;;;5156432;27;20739;-72
2023/05/22 10:07:29;;;;;;;23.97;11.03;;;10.30;99.90;;;;;;5156515;27;20195;-74
2023/05/22 10:10:11;;;;;;;24.13;12.73;;;10.30;99.90;;;;;;5156194;27;20211;-74
2023/05/22 10:12:48;;;;;;;20.17;11.97;;;10.30;99.90;;;;;;5155388;27;20225;-74
2023/05/22 10:15:18;;;;;;;19.50;11.27;;;10.20;99.90;;;;;;5156498;27;20223;-73
2023/05/22 10:17:46;;;;;;;16.03;9.23;;;10.20;99.90;;;;;;5156119;27;20176;-74
2023/05/22 10:20:16;;;;;;;16.50;9.93;;;10.20;99.90;;;;;;5156180;27;20587;-74
2023/05/22 10:22:45;;;;;;;17.63;10.27;;;10.10;99.90;;;;;;5155926;27;20186;-73
2023/05/22 10:25:13;;;;;;;23.30;11.50;;;10.00;99.90;;;;;;5155517;27;20180;-75
2023/05/22 10:27:41;;;;;;;20.80;9.53;;;10.00;99.90;;;;;;5155647;27;20182;-72
2023/05/22 10:30:23;;;;;;;20.23;10.00;;;9.90;99.90;;;;;;5155813;27;20219;-70
2023/05/22 10:33:12;;;;;;;21.53;9.77;;;9.90;99.90;;;;;;5155558;27;20578;-70
2023/05/22 10:36:12;;;;;;;17.67;9.70;;;9.90;99.90;;;;;;5105233;27;20182;-73
2023/05/22 10:38:47;;;;;;;17.80;9.57;;;9.90;99.90;;;;;;5064441;27;20196;-73
2023/05/22 10:41:16;;;;;;;21.97;9.60;;;10.00;99.90;;;;;;5155664;27;20275;-73
2023/05/22 10:43:47;;;;;;;14.10;8.03;;;9.90;99.90;;;;;;5155543;27;20170;-73
2023/05/22 10:46:16;;;;;;;19.07;9.67;;;9.80;99.90;;;;;;5155422;27;20172;-73
2023/05/22 10:48:51;;;;;;;18.90;9.30;;;9.70;99.90;;;;;;5155285;27;20580;-73
2023/05/22 10:51:23;;;;;;;20.23;9.77;;;9.70;99.90;;;;;;5136471;27;20233;-74
2023/05/22 10:54:01;;;;;;;14.40;8.83;;;9.70;99.90;;;;;;5155341;27;20201;-73
2023/05/22 10:56:35;;;;;;;18.70;8.30;;;9.60;99.90;;;;;;5154935;27;20175;-75
2023/05/22 10:59:06;;;;;;;16.83;8.53;;;9.60;99.90;;;;;;5154539;27;20183;-73
2023/05/22 11:01:36;;;;;;;16.20;8.17;;;9.60;99.90;;;;;;5127277;27;20174;-72
2023/05/22 11:04:07;;;;;;;15.47;8.60;;;9.50;99.90;;;;;;5136556;27;20310;-74
2023/05/22 11:07:03;;;;;;;18.87;8.60;;;9.50;99.90;;;;;;5136244;27;20181;-73
2023/05/22 11:09:32;;;;;;;18.43;7.57;;;9.50;99.90;;;;;;5130543;27;20516;-74
2023/05/22 11:12:29;;;;;;;19.10;8.93;;;9.50;99.90;;;;;;5154596;27;20230;-73
2023/05/22 11:15:10;;;;;;;16.20;7.93;;;9.40;99.90;;;;;;5154622;27;20272;-74
2023/05/22 11:17:43;;;;;;;18.50;8.50;;;9.40;99.90;;;;;;5155065;27;20165;-73
2023/05/22 11:20:21;;;;;;;17.50;8.47;;;9.40;99.90;;;;;;5154737;27;20181;-75
2023/05/22 11:22:58;;;;;;;13.20;7.77;;;9.40;99.90;;;;;;5154292;27;20212;-75
2023/05/22 11:25:28;;;;;;;15.83;7.40;;;9.30;99.90;;;;;;5154594;27;20211;-74
2023/05/22 11:27:57;;;;;;;16.53;8.30;;;9.30;99.90;;;;;;5154862;27;20215;-72
2023/05/22 11:30:31;;;;;;;20.07;8.57;;;9.30;99.90;;;;;;5154390;27;20178;-73
2023/05/22 11:33:00;;;;;;;17.13;7.90;;;9.30;99.90;;;;;;5154585;27;20204;-72
2023/05/22 11:35:28;;;;;;;14.67;7.10;;;9.20;99.90;;;;;;5135917;27;20185;-73
2023/05/22 11:37:55;;;;;;;17.37;7.90;;;9.20;99.90;;;;;;5154389;27;20187;-74
2023/05/22 11:40:28;;;;;;;12.77;7.33;;;9.10;99.90;;;;;;5154540;27;20176;-72
2023/05/22 11:42:56;;;;;;;12.90;7.57;;;9.10;99.90;;;;;;5135521;27;20174;-74
2023/05/22 11:45:24;;;;;;;13.07;8.27;;;9.10;99.90;;;;;;5135803;27;20185;-73
2023/05/22 11:47:52;;;;;;;13.23;7.33;;;9.10;99.90;;;;;;5154498;27;20251;-74
2023/05/22 11:50:19;;;;;;;13.50;7.30;;;9.00;99.90;;;;;;5154192;27;20170;-74
2023/05/22 11:52:48;;;;;;;16.30;8.30;;;9.00;99.90;;;;;;5135489;27;20224;-74
2023/05/22 11:55:15;;;;;;;13.37;7.60;;;8.90;99.90;;;;;;5154301;27;20179;-71
2023/05/22 11:57:43;;;;;;;22.57;8.73;;;8.90;99.90;;;;;;5154333;27;20179;-74
2023/05/22 12:00:10;;;;;;;20.33;8.30;;;8.90;99.90;;;;;;5154335;27;20257;-73
2023/05/22 12:02:38;;;;;;;19.83;8.50;;;8.80;99.90;;;;;;5153917;27;20667;-73
2023/05/22 12:05:08;;;;;;;20.60;8.27;;;8.80;99.90;;;;;;5154070;27;20292;-73
2023/05/22 12:07:36;;;;;;;18.83;8.27;;;8.70;99.90;;;;;;5154046;27;20178;-75
2023/05/22 12:10:06;;;;;;;13.93;8.13;;;8.70;99.90;;;;;;5154262;27;20624;-74
2023/05/22 12:12:33;;;;;;;18.50;8.77;;;8.60;99.90;;;;;;5153996;27;20225;-73
2023/05/22 12:15:04;;;;;;;18.47;9.00;;;8.60;99.90;;;;;;5154002;27;20220;-74
2023/05/22 12:17:31;;;;;;;17.50;8.37;;;8.50;99.90;;;;;;5154067;27;20178;-73
2023/05/22 12:19:58;;;;;;;19.83;7.70;;;8.50;99.90;;;;;;5154100;27;20182;-74
2023/05/22 12:22:28;;;;;;;15.33;8.00;;;8.50;99.90;;;;;;5154198;27;20260;-74
2023/05/22 12:24:55;;;;;;;16.07;8.77;;;8.40;99.90;;;;;;5154008;27;20549;-73
2023/05/22 12:27:23;;;;;;;12.70;7.27;;;8.40;99.90;;;;;;5153748;27;20177;-74
2023/05/22 12:29:51;;;;;;;20.80;7.43;;;8.40;99.90;;;;;;5153814;27;20200;-72
2023/05/22 12:32:22;;;;;;;16.87;8.57;;;8.40;99.90;;;;;;5154156;27;20209;-74
2023/05/22 12:34:49;;;;;;;14.27;7.47;;;8.40;99.90;;;;;;5156459;27;20267;-73
2023/05/22 12:37:21;;;;;;;18.70;7.00;;;8.30;99.90;;;;;;5157237;27;20341;-73
2023/05/22 12:39:59;;;;;;;14.00;7.40;;;8.30;99.90;;;;;;5158220;27;20226;-75
2023/05/22 12:42:28;;;;;;;20.07;7.20;;;8.20;99.90;;;;;;5156569;27;20646;-72
2023/05/22 12:44:57;;;;;;;12.67;6.70;;;8.20;99.90;;;;;;5137433;27;20538;-73
2023/05/22 12:47:24;;;;;;;18.57;7.27;;;8.10;99.90;;;;;;5136737;27;20234;-74
2023/05/22 12:49:52;;;;;;;14.73;6.67;;;8.10;99.90;;;;;;5137217;27;20249;-73
2023/05/22 12:52:19;;;;;;;18.30;7.53;;;8.10;99.90;;;;;;5137025;27;20715;-73
2023/05/22 12:54:47;;;;;;;16.23;7.60;;;8.00;99.90;;;;;;5137113;27;20265;-74
2023/05/22 12:57:15;;;;;;;15.03;6.83;;;8.00;99.90;;;;;;5136506;27;20261;-73
2023/05/22 12:59:43;;;;;;;20.23;7.93;;;8.00;99.90;;;;;;5137010;27;20162;-73
2023/05/22 13:02:10;;;;;;;17.97;6.70;;;8.00;99.90;;;;;;5137754;27;20519;-71
2023/05/22 13:04:37;;;;;;;15.93;7.60;;;7.90;99.90;;;;;;5157106;27;20186;-71